Time;durP1;ratioP1;P1;durP2;ratioP2;P2;SDS_P1;SDS_P2;PMS_P1;PMS_P2;Temp;Humidity;BMP_temperature;BMP_pressure;BME280_temperature;BME280_humidity;BME280_pressure;Samples;Min_cycle;Max_cycle;Signal;HPM_P1;HPM_P2
2023/11/11 08:46:33;;;;;;;16.00;11.93;;;11.60;96.60;;;;;;5150589;23;20299;-79
2023/11/11 08:49:05;;;;;;;15.07;11.77;;;11.80;96.30;;;;;;5015189;28;20212;-75
2023/11/11 08:51:33;;;;;;;14.83;12.03;;;11.90;96.00;;;;;;5014940;28;20664;-77
2023/11/11 08:54:03;;;;;;;17.77;12.30;;;12.00;95.90;;;;;;5017666;28;20219;-76
2023/11/11 08:56:31;;;;;;;16.43;12.77;;;12.10;95.60;;;;;;5015426;28;20552;-77
2023/11/11 08:59:08;;;;;;;15.90;12.13;;;12.20;95.30;;;;;;5013270;28;20222;-76
2023/11/11 09:01:39;;;;;;;15.47;11.80;;;12.30;95.10;;;;;;5028469;28;20652;-76
2023/11/11 09:04:10;;;;;;;18.43;12.10;;;12.40;94.80;;;;;;5009314;28;20285;-75
2023/11/11 09:06:41;;;;;;;13.60;11.70;;;12.50;94.70;;;;;;5017625;28;20226;-76
2023/11/11 09:09:14;;;;;;;18.57;13.67;;;12.60;94.40;;;;;;5013806;28;20211;-76
2023/11/11 09:11:47;;;;;;;17.63;14.40;;;12.70;94.20;;;;;;5014244;28;20215;-77
2023/11/11 09:14:15;;;;;;;18.93;13.27;;;12.70;93.40;;;;;;5010567;28;20818;-76
2023/11/11 09:16:44;;;;;;;16.10;12.50;;;12.70;93.00;;;;;;5015599;28;20637;-76
2023/11/11 09:19:16;;;;;;;22.37;14.20;;;12.70;92.80;;;;;;5014973;28;20283;-80
2023/11/11 09:21:48;;;;;;;15.70;13.03;;;12.70;92.70;;;;;;4995395;28;20230;-78
2023/11/11 09:24:16;;;;;;;15.23;12.73;;;12.70;92.60;;;;;;5013898;28;20209;-76
2023/11/11 09:26:49;;;;;;;17.17;13.43;;;12.70;92.50;;;;;;5014919;28;20787;-75
2023/11/11 09:29:20;;;;;;;16.80;12.60;;;12.70;92.40;;;;;;5016765;28;20206;-77
2023/11/11 09:31:48;;;;;;;17.97;13.97;;;12.80;92.70;;;;;;5015723;28;20212;-77
2023/11/11 09:34:16;;;;;;;16.90;12.80;;;12.80;92.70;;;;;;5019005;28;20213;-76
2023/11/11 09:36:44;;;;;;;17.87;12.33;;;12.90;92.80;;;;;;5000470;28;20308;-76
2023/11/11 09:39:13;;;;;;;16.67;13.13;;;12.90;92.60;;;;;;5013952;28;20219;-78
2023/11/11 09:41:42;;;;;;;16.93;13.67;;;13.00;92.60;;;;;;5012747;28;20215;-77
2023/11/11 09:44:13;;;;;;;15.93;11.53;;;13.10;92.50;;;;;;5024548;28;20604;-77
2023/11/11 09:46:55;;;;;;;14.27;11.97;;;13.20;91.90;;;;;;5013012;28;20261;-78
2023/11/11 09:49:27;;;;;;;18.03;12.47;;;13.20;91.20;;;;;;5001784;28;20199;-76
2023/11/11 09:51:58;;;;;;;15.33;11.63;;;13.20;91.10;;;;;;5006886;28;20215;-77
2023/11/11 09:54:30;;;;;;;16.23;12.73;;;13.20;91.20;;;;;;4996022;28;20614;-77
2023/11/11 09:57:00;;;;;;;15.60;13.03;;;13.20;91.20;;;;;;4997273;28;20259;-77
2023/11/11 09:59:34;;;;;;;14.77;11.93;;;13.30;90.80;;;;;;4995215;28;20216;-77
2023/11/11 10:02:02;;;;;;;14.80;12.17;;;13.40;91.00;;;;;;5012345;28;20225;-77
2023/11/11 10:04:30;;;;;;;16.47;12.50;;;13.40;90.90;;;;;;5009758;28;20238;-77
2023/11/11 10:06:58;;;;;;;14.67;10.40;;;13.50;90.90;;;;;;4999398;28;20660;-77
2023/11/11 10:09:26;;;;;;;12.57;9.87;;;13.60;90.80;;;;;;5014485;28;20618;-77
2023/11/11 10:11:55;;;;;;;12.97;10.07;;;13.60;90.50;;;;;;5007990;28;20605;-76
2023/11/11 10:14:24;;;;;;;12.93;10.10;;;13.70;90.60;;;;;;4996317;28;20200;-78
2023/11/11 10:16:54;;;;;;;12.30;9.70;;;13.70;90.50;;;;;;5011629;28;20293;-76
2023/11/11 10:19:22;;;;;;;11.73;10.10;;;13.80;89.00;;;;;;5010774;28;20203;-76
2023/11/11 10:21:58;;;;;;;11.63;8.97;;;13.70;88.30;;;;;;5010176;28;20211;-78
2023/11/11 10:24:26;;;;;;;12.47;9.80;;;13.80;88.00;;;;;;5015039;28;20392;-77
2023/11/11 10:26:57;;;;;;;12.83;9.13;;;13.80;87.90;;;;;;5024520;28;20223;-77
2023/11/11 10:29:36;;;;;;;11.83;8.97;;;13.90;87.80;;;;;;5009421;28;20634;-76
2023/11/11 10:32:11;;;;;;;9.37;8.20;;;13.90;87.50;;;;;;5023983;28;20751;-78
2023/11/11 10:34:42;;;;;;;11.20;8.50;;;14.00;87.30;;;;;;5009682;28;20286;-77
2023/11/11 10:37:11;;;;;;;10.70;8.50;;;14.10;87.90;;;;;;5009106;28;20203;-76
2023/11/11 10:39:39;;;;;;;9.70;8.27;;;14.20;87.20;;;;;;5012951;28;20210;-78
2023/11/11 10:42:07;;;;;;;9.93;8.33;;;14.20;86.60;;;;;;5015615;28;20223;-76
2023/11/11 10:44:35;;;;;;;11.70;7.40;;;14.30;87.00;;;;;;5012325;28;20211;-77
2023/11/11 10:47:04;;;;;;;10.07;7.87;;;14.40;86.80;;;;;;5010444;28;20231;-76
2023/11/11 10:49:35;;;;;;;11.53;7.50;;;14.40;85.60;;;;;;5007600;28;20627;-77
2023/11/11 10:52:04;;;;;;;9.07;7.03;;;14.60;85.70;;;;;;4999045;28;20213;-78
2023/11/11 10:54:36;;;;;;;8.93;7.67;;;14.60;85.20;;;;;;5017992;28;20212;-76
2023/11/11 10:57:05;;;;;;;7.70;6.40;;;14.60;82.80;;;;;;5017511;28;20217;-76
2023/11/11 10:59:34;;;;;;;10.83;7.03;;;14.70;81.90;;;;;;5014816;28;20532;-76
2023/11/11 11:02:10;;;;;;;8.53;6.47;;;14.70;81.40;;;;;;5019331;28;20209;-77
2023/11/11 11:04:44;;;;;;;7.17;6.23;;;14.70;81.20;;;;;;5004047;28;20222;-77
2023/11/11 11:07:18;;;;;;;7.87;7.07;;;14.60;82.00;;;;;;5017965;28;20337;-77
2023/11/11 11:09:56;;;;;;;11.50;7.13;;;14.70;82.60;;;;;;5011956;28;20213;-77
2023/11/11 11:12:46;;;;;;;11.03;7.40;;;14.70;82.50;;;;;;5014398;28;20214;-76
2023/11/11 11:15:14;;;;;;;8.13;6.80;;;14.90;82.90;;;;;;4997438;28;20211;-75
2023/11/11 11:17:44;;;;;;;8.97;6.30;;;14.90;83.10;;;;;;5015042;28;20645;-76
2023/11/11 11:20:20;;;;;;;8.47;6.10;;;15.00;81.80;;;;;;5015888;28;20266;-77
2023/11/11 11:23:00;;;;;;;8.47;6.50;;;15.10;82.40;;;;;;5010966;28;20263;-77
2023/11/11 11:25:33;;;;;;;8.23;6.73;;;15.20;82.90;;;;;;5030571;28;20211;-77
2023/11/11 11:28:09;;;;;;;7.63;6.63;;;15.40;81.70;;;;;;5017500;28;20714;-77
2023/11/11 11:30:43;;;;;;;9.23;6.90;;;15.40;81.40;;;;;;5019212;28;20219;-77
2023/11/11 11:33:14;;;;;;;9.77;6.33;;;15.50;81.90;;;;;;5017233;28;20277;-79
2023/11/11 11:36:01;;;;;;;9.10;6.73;;;15.60;81.30;;;;;;4996559;28;20200;-78
2023/11/11 11:38:34;;;;;;;6.40;5.40;;;15.60;81.00;;;;;;5025602;28;20246;-78
2023/11/11 11:41:13;;;;;;;8.53;6.77;;;15.70;81.50;;;;;;5008573;28;20265;-78
2023/11/11 11:43:42;;;;;;;9.00;6.30;;;15.70;80.60;;;;;;5009481;28;20202;-78
2023/11/11 11:46:15;;;;;;;8.30;6.70;;;15.80;80.80;;;;;;4997358;28;20350;-77
2023/11/11 11:48:49;;;;;;;7.87;6.17;;;15.80;80.80;;;;;;4993252;28;21596;-78
2023/11/11 11:51:18;;;;;;;8.97;5.60;;;15.90;81.00;;;;;;5006607;28;20260;-77
2023/11/11 11:53:53;;;;;;;7.43;5.77;;;16.00;81.00;;;;;;4992166;28;20267;-77
2023/11/11 11:56:35;;;;;;;7.77;6.20;;;16.00;80.00;;;;;;4994717;28;20294;-77
2023/11/11 11:59:03;;;;;;;10.90;6.30;;;16.10;79.10;;;;;;4978314;28;20227;-78
2023/11/11 12:01:34;;;;;;;10.20;6.87;;;16.10;79.10;;;;;;4994533;28;20212;-76
2023/11/11 12:04:04;;;;;;;8.43;6.57;;;16.10;77.80;;;;;;4991169;28;20269;-77
2023/11/11 12:06:39;;;;;;;11.23;6.63;;;16.10;76.80;;;;;;4990383;28;20295;-78
2023/11/11 12:09:09;;;;;;;8.50;6.40;;;16.20;77.40;;;;;;4992215;28;20662;-78
2023/11/11 12:11:37;;;;;;;7.70;5.90;;;16.20;77.70;;;;;;4972887;28;20533;-78
2023/11/11 12:14:08;;;;;;;8.63;6.20;;;16.20;77.40;;;;;;4989018;28;20212;-77
2023/11/11 12:16:42;;;;;;;7.47;6.37;;;16.30;77.60;;;;;;4989195;28;20266;-78
2023/11/11 12:19:16;;;;;;;9.33;6.43;;;16.30;78.10;;;;;;4986661;28;20196;-77
2023/11/11 12:21:50;;;;;;;11.80;6.50;;;16.30;76.30;;;;;;4992469;28;20305;-77
2023/11/11 12:24:22;;;;;;;8.83;6.53;;;16.40;76.80;;;;;;4992071;28;20515;-78
2023/11/11 12:26:50;;;;;;;8.93;6.53;;;16.40;76.50;;;;;;4982980;28;20683;-77
2023/11/11 12:29:19;;;;;;;8.90;6.50;;;16.40;76.80;;;;;;4985774;28;20307;-78
2023/11/11 12:31:57;;;;;;;7.93;6.67;;;16.40;76.80;;;;;;4972437;28;20730;-77
2023/11/11 12:34:29;;;;;;;7.93;6.13;;;16.40;76.60;;;;;;4996477;28;20208;-77
2023/11/11 12:36:59;;;;;;;8.57;7.17;;;16.40;76.90;;;;;;4975136;28;20228;-77
2023/11/11 12:39:26;;;;;;;8.37;6.80;;;16.50;77.90;;;;;;4992808;28;20659;-77
2023/11/11 12:42:01;;;;;;;10.23;7.30;;;16.50;78.50;;;;;;4978593;28;20213;-77
2023/11/11 12:44:38;;;;;;;11.33;7.30;;;16.60;78.60;;;;;;4990497;28;20338;-77
2023/11/11 12:47:15;;;;;;;10.33;6.87;;;16.60;78.20;;;;;;5004681;28;20295;-77
2023/11/11 12:49:54;;;;;;;6.90;6.00;;;16.60;78.10;;;;;;5017111;28;20203;-78
2023/11/11 12:52:23;;;;;;;8.40;6.83;;;16.70;77.90;;;;;;4998664;28;20664;-77
2023/11/11 12:54:51;;;;;;;8.13;7.07;;;16.70;77.20;;;;;;5013575;28;20238;-77
2023/11/11 12:57:27;;;;;;;10.53;7.70;;;16.70;77.30;;;;;;5010527;28;20239;-77
2023/11/11 12:59:56;;;;;;;8.83;7.47;;;16.70;77.70;;;;;;5003232;28;20215;-78
2023/11/11 13:02:27;;;;;;;10.27;7.90;;;16.70;77.70;;;;;;5002835;28;20200;-77
2023/11/11 13:05:08;;;;;;;9.37;7.77;;;16.70;77.60;;;;;;5008476;28;20211;-77
2023/11/11 13:07:38;;;;;;;9.03;7.77;;;16.70;77.10;;;;;;5020493;28;20225;-77
2023/11/11 13:10:11;;;;;;;8.50;7.60;;;16.60;77.30;;;;;;4991064;28;20205;-77
2023/11/11 13:12:44;;;;;;;8.90;7.37;;;16.60;77.30;;;;;;4993694;28;20213;-78
2023/11/11 13:15:19;;;;;;;8.93;7.67;;;16.60;76.60;;;;;;5009869;28;20216;-77
2023/11/11 13:17:52;;;;;;;8.47;7.43;;;16.50;76.00;;;;;;5006732;28;20553;-78
2023/11/11 13:20:28;;;;;;;8.87;7.97;;;16.50;75.90;;;;;;4996588;28;20211;-78
2023/11/11 13:23:20;;;;;;;10.67;7.80;;;16.40;76.80;;;;;;4998430;28;20304;-79
2023/11/11 13:25:56;;;;;;;8.90;6.53;;;16.30;77.50;;;;;;5007130;28;20210;-78
2023/11/11 13:28:30;;;;;;;8.20;6.53;;;16.30;77.80;;;;;;5003619;28;20215;-78
2023/11/11 13:31:02;;;;;;;6.87;5.97;;;16.30;77.90;;;;;;5003293;28;20219;-78
2023/11/11 13:33:33;;;;;;;9.13;6.17;;;16.30;78.10;;;;;;5011650;28;20286;-78
2023/11/11 13:36:25;;;;;;;9.90;6.60;;;16.20;78.30;;;;;;4994165;28;20531;-77
2023/11/11 13:39:00;;;;;;;6.20;5.57;;;16.20;78.50;;;;;;5010162;28;20222;-77
2023/11/11 13:41:36;;;;;;;7.70;6.20;;;16.20;78.40;;;;;;5001643;28;20250;-78
2023/11/11 13:44:13;;;;;;;7.97;6.23;;;16.20;77.10;;;;;;5009790;28;20256;-78
2023/11/11 13:46:46;;;;;;;8.63;5.60;;;16.10;77.40;;;;;;5007629;28;20255;-78
2023/11/11 13:49:16;;;;;;;8.00;5.43;;;16.10;77.80;;;;;;5009823;28;20208;-78
2023/11/11 13:51:45;;;;;;;6.40;5.30;;;16.00;78.00;;;;;;5014582;28;20258;-77
2023/11/11 13:54:16;;;;;;;8.93;5.37;;;16.00;75.90;;;;;;4994847;28;20295;-78
2023/11/11 13:56:44;;;;;;;7.93;4.93;;;15.90;74.70;;;;;;4994563;28;20212;-77
2023/11/11 13:59:14;;;;;;;6.77;5.00;;;15.90;74.50;;;;;;5004609;28;20221;-78
2023/11/11 14:01:42;;;;;;;5.17;4.67;;;15.80;73.50;;;;;;5003068;28;20219;-78
2023/11/11 14:04:11;;;;;;;6.53;5.20;;;15.70;74.00;;;;;;5004400;28;20549;-78
2023/11/11 14:06:39;;;;;;;6.93;5.30;;;15.70;73.10;;;;;;5005705;28;20216;-78
2023/11/11 14:09:10;;;;;;;6.17;5.00;;;15.60;72.00;;;;;;4992111;28;20224;-77
2023/11/11 14:11:40;;;;;;;9.00;5.33;;;15.60;72.70;;;;;;4999200;28;20212;-78
2023/11/11 14:14:09;;;;;;;9.17;5.73;;;15.50;73.50;;;;;;5010845;28;20223;-78
2023/11/11 14:16:37;;;;;;;8.60;5.27;;;15.50;74.20;;;;;;5000193;28;20295;-78
2023/11/11 14:19:11;;;;;;;8.67;5.73;;;15.50;73.90;;;;;;5010194;28;20213;-78
2023/11/11 14:21:42;;;;;;;6.87;5.93;;;15.40;73.90;;;;;;5009106;28;20212;-77
2023/11/11 14:24:09;;;;;;;7.33;5.80;;;15.40;73.80;;;;;;4998807;28;20263;-77
2023/11/11 14:26:43;;;;;;;6.37;5.20;;;15.30;74.30;;;;;;4984825;28;20299;-77
2023/11/11 14:29:14;;;;;;;6.43;5.17;;;15.30;74.50;;;;;;5004225;28;20221;-79
2023/11/11 14:31:42;;;;;;;9.60;5.90;;;15.20;75.00;;;;;;5008597;28;20648;-78
2023/11/11 14:34:10;;;;;;;8.17;5.73;;;15.20;75.60;;;;;;5004286;28;20334;-78
2023/11/11 14:36:40;;;;;;;6.57;5.80;;;15.10;75.70;;;;;;5012795;28;20208;-78
2023/11/11 14:39:08;;;;;;;9.80;6.17;;;15.10;76.00;;;;;;5001907;28;20208;-77
2023/11/11 14:41:37;;;;;;;8.00;5.60;;;15.10;75.50;;;;;;5006681;28;20212;-77
2023/11/11 14:44:06;;;;;;;7.03;5.50;;;15.10;76.20;;;;;;5017070;28;20212;-78
2023/11/11 14:46:36;;;;;;;9.23;6.47;;;15.00;77.00;;;;;;4999658;28;20274;-78
2023/11/11 14:49:09;;;;;;;6.80;5.80;;;15.00;77.30;;;;;;5011845;28;20218;-78
2023/11/11 14:51:41;;;;;;;10.40;6.30;;;14.90;77.80;;;;;;5013116;28;20221;-77
2023/11/11 14:54:11;;;;;;;6.73;5.87;;;14.90;78.20;;;;;;5007174;28;20211;-77
2023/11/11 14:56:39;;;;;;;6.53;5.37;;;14.80;78.50;;;;;;4995244;28;20203;-78
2023/11/11 14:59:09;;;;;;;8.67;6.43;;;14.80;78.70;;;;;;5019452;28;20231;-78
2023/11/11 15:01:43;;;;;;;7.73;5.57;;;14.70;78.90;;;;;;5008986;28;20223;-78
2023/11/11 15:04:12;;;;;;;8.47;6.47;;;14.70;79.20;;;;;;5013160;28;20211;-78
2023/11/11 15:06:41;;;;;;;9.67;7.33;;;14.70;79.40;;;;;;5012837;28;20660;-78
2023/11/11 15:09:09;;;;;;;11.70;6.20;;;14.60;79.80;;;;;;5024947;28;20682;-77
2023/11/11 15:11:42;;;;;;;8.27;6.80;;;14.60;80.30;;;;;;5007439;28;20200;-77
2023/11/11 15:14:17;;;;;;;7.90;5.83;;;14.50;80.40;;;;;;5024333;28;20205;-77
2023/11/11 15:16:45;;;;;;;7.17;6.07;;;14.40;80.30;;;;;;5003272;28;20651;-77
2023/11/11 15:19:14;;;;;;;10.33;5.90;;;14.40;80.50;;;;;;5007133;28;20244;-77
2023/11/11 15:21:48;;;;;;;10.77;6.43;;;14.30;80.40;;;;;;5019197;28;20219;-77
2023/11/11 15:24:18;;;;;;;9.30;6.50;;;14.30;80.70;;;;;;4994355;28;20212;-77
2023/11/11 15:26:47;;;;;;;7.27;6.07;;;14.20;80.90;;;;;;4993976;28;20215;-78
2023/11/11 15:29:19;;;;;;;7.13;5.80;;;14.10;81.30;;;;;;5000599;28;20223;-78
2023/11/11 15:31:47;;;;;;;6.43;5.43;;;14.00;81.60;;;;;;5007102;28;20214;-78
2023/11/11 15:34:16;;;;;;;7.63;6.03;;;13.90;82.00;;;;;;5019193;28;20207;-77
2023/11/11 15:36:45;;;;;;;9.00;6.40;;;13.90;82.40;;;;;;5006032;28;20302;-78
2023/11/11 15:39:16;;;;;;;7.83;6.23;;;13.80;82.70;;;;;;5005552;28;20200;-78
2023/11/11 15:41:44;;;;;;;7.27;5.77;;;13.70;82.80;;;;;;5017322;28;20199;-78
2023/11/11 15:44:13;;;;;;;12.97;6.20;;;13.70;82.80;;;;;;5015075;28;20269;-77
2023/11/11 15:46:41;;;;;;;7.80;5.60;;;13.60;82.70;;;;;;5014293;28;20250;-78
2023/11/11 15:49:09;;;;;;;8.33;6.03;;;13.50;82.70;;;;;;4994716;28;20242;-78
2023/11/11 15:51:38;;;;;;;10.77;5.90;;;13.50;83.00;;;;;;5006695;28;20716;-77
2023/11/11 15:54:07;;;;;;;7.67;5.70;;;13.40;83.40;;;;;;5009524;28;20244;-79
2023/11/11 15:56:35;;;;;;;8.00;6.37;;;13.30;83.70;;;;;;5009820;28;20303;-78
2023/11/11 15:59:04;;;;;;;9.17;6.37;;;13.20;83.90;;;;;;4995549;28;20211;-78
2023/11/11 16:01:32;;;;;;;8.17;7.23;;;13.10;84.20;;;;;;5023347;28;20216;-78
2023/11/11 16:04:00;;;;;;;12.47;7.60;;;13.00;84.70;;;;;;5005742;28;20648;-77
2023/11/11 16:06:28;;;;;;;12.40;6.50;;;12.90;85.30;;;;;;5024099;28;20212;-78
2023/11/11 16:08:56;;;;;;;9.97;7.90;;;12.80;85.90;;;;;;5007324;28;20216;-78
2023/11/11 16:11:24;;;;;;;11.60;7.10;;;12.80;86.40;;;;;;5004647;28;20208;-77
2023/11/11 16:13:53;;;;;;;11.67;6.83;;;12.70;86.70;;;;;;5008815;28;20211;-78
2023/11/11 16:16:20;;;;;;;9.50;6.60;;;12.60;87.10;;;;;;5005060;28;20301;-78
2023/11/11 16:18:48;;;;;;;10.83;7.23;;;12.60;87.50;;;;;;5006724;28;20212;-78
2023/11/11 16:21:21;;;;;;;9.43;6.73;;;12.50;87.90;;;;;;5001982;28;20223;-78
2023/11/11 16:23:51;;;;;;;11.03;7.47;;;12.40;88.30;;;;;;5010746;28;20192;-77
2023/11/11 16:26:20;;;;;;;11.43;7.43;;;12.30;88.70;;;;;;5024908;28;20203;-78
2023/11/11 16:28:48;;;;;;;12.60;8.10;;;12.20;89.00;;;;;;5011026;28;20287;-77
2023/11/11 16:31:23;;;;;;;10.83;7.20;;;12.10;89.40;;;;;;5011838;28;20218;-78
2023/11/11 16:33:58;;;;;;;7.27;6.53;;;12.00;90.00;;;;;;5008449;28;20231;-78
2023/11/11 16:36:29;;;;;;;10.27;7.63;;;11.90;90.20;;;;;;5006425;28;20197;-79
2023/11/11 16:39:01;;;;;;;7.93;6.77;;;11.80;90.30;;;;;;5013375;28;20207;-77
2023/11/11 16:41:29;;;;;;;9.17;7.00;;;11.70;90.50;;;;;;5003111;28;20213;-76
2023/11/11 16:43:57;;;;;;;7.97;6.63;;;11.70;90.60;;;;;;5006205;28;20603;-77
2023/11/11 16:46:27;;;;;;;8.37;6.07;;;11.60;90.90;;;;;;5021245;28;20239;-78
2023/11/11 16:48:56;;;;;;;13.20;7.37;;;11.60;91.00;;;;;;5026949;28;20539;-78
2023/11/11 16:51:24;;;;;;;9.87;7.00;;;11.50;91.10;;;;;;5015676;28;20209;-77
2023/11/11 16:53:51;;;;;;;10.80;7.13;;;11.50;91.20;;;;;;5016068;28;20218;-78
2023/11/11 16:56:23;;;;;;;10.97;7.37;;;11.40;91.30;;;;;;5026826;28;20229;-78
2023/11/11 16:58:52;;;;;;;11.27;6.97;;;11.40;91.40;;;;;;5028440;28;20278;-78
2023/11/11 17:01:21;;;;;;;11.63;7.87;;;11.30;91.60;;;;;;5011838;28;20553;-78
2023/11/11 17:03:57;;;;;;;10.67;7.23;;;11.30;91.70;;;;;;5026935;28;20258;-78
2023/11/11 17:06:24;;;;;;;11.23;8.43;;;11.20;91.70;;;;;;5024750;28;20214;-77
2023/11/11 17:08:53;;;;;;;11.27;8.10;;;11.20;91.90;;;;;;5023645;28;20308;-77
2023/11/11 17:11:20;;;;;;;11.50;7.77;;;11.10;92.00;;;;;;5025241;28;20547;-78
2023/11/11 17:13:48;;;;;;;10.33;7.10;;;11.10;92.40;;;;;;5015002;28;20207;-78
2023/11/11 17:16:17;;;;;;;12.90;8.67;;;11.10;92.10;;;;;;5011821;28;20223;-78
2023/11/11 17:18:44;;;;;;;13.73;8.23;;;11.00;92.20;;;;;;5020416;28;20211;-78
2023/11/11 17:21:12;;;;;;;12.13;8.30;;;11.00;92.30;;;;;;5024656;28;20242;-77
2023/11/11 17:23:43;;;;;;;11.67;7.97;;;11.00;92.40;;;;;;5010510;28;20626;-78
2023/11/11 17:26:11;;;;;;;10.23;7.23;;;10.90;92.50;;;;;;5026904;28;20217;-78
2023/11/11 17:28:40;;;;;;;11.50;7.57;;;10.90;92.60;;;;;;5016684;28;20739;-78
2023/11/11 17:31:08;;;;;;;16.10;10.97;;;10.80;92.60;;;;;;5007847;28;20229;-77
2023/11/11 17:33:39;;;;;;;14.80;10.83;;;10.70;92.60;;;;;;5015484;28;20196;-77
2023/11/11 17:36:20;;;;;;;13.03;10.50;;;10.70;92.70;;;;;;5013682;28;20284;-78
2023/11/11 17:38:47;;;;;;;16.90;8.43;;;10.60;92.80;;;;;;5016275;28;20210;-78
2023/11/11 17:41:17;;;;;;;12.33;9.17;;;10.60;92.80;;;;;;5012040;28;20224;-79
2023/11/11 17:43:45;;;;;;;11.93;9.07;;;10.50;92.90;;;;;;5019755;28;20270;-77
2023/11/11 17:46:19;;;;;;;10.87;8.43;;;10.50;93.00;;;;;;5015434;28;20323;-78
2023/11/11 17:48:47;;;;;;;11.63;8.43;;;10.40;93.10;;;;;;5003411;28;20230;-77
2023/11/11 17:51:17;;;;;;;9.40;7.97;;;10.40;93.20;;;;;;5002365;28;20220;-77
2023/11/11 17:53:45;;;;;;;11.77;8.83;;;10.40;93.40;;;;;;5005228;28;20197;-78
2023/11/11 17:56:24;;;;;;;13.23;8.43;;;10.30;93.40;;;;;;5001746;28;20200;-78
2023/11/11 17:58:54;;;;;;;9.90;7.77;;;10.30;93.50;;;;;;5007785;28;20217;-79
2023/11/11 18:01:22;;;;;;;12.77;7.80;;;10.20;93.60;;;;;;5001094;28;20245;-79
2023/11/11 18:03:50;;;;;;;9.30;7.83;;;10.20;93.60;;;;;;5006945;28;20218;-78
2023/11/11 18:06:18;;;;;;;11.03;8.43;;;10.20;93.70;;;;;;5005683;28;20234;-78
2023/11/11 18:08:45;;;;;;;16.10;12.53;;;10.20;93.80;;;;;;5001079;28;20237;-78
2023/11/11 18:11:13;;;;;;;18.53;12.10;;;10.10;93.90;;;;;;5011653;28;20221;-78
2023/11/11 18:13:41;;;;;;;15.97;9.87;;;10.10;93.90;;;;;;4990678;28;20199;-78
2023/11/11 18:16:16;;;;;;;10.00;8.43;;;10.10;93.90;;;;;;5008569;28;20262;-78
2023/11/11 18:18:44;;;;;;;14.07;9.13;;;10.10;93.90;;;;;;5010897;28;20242;-78
2023/11/11 18:21:15;;;;;;;13.70;10.13;;;10.10;93.90;;;;;;5019793;28;20681;-79
2023/11/11 18:23:43;;;;;;;15.57;10.30;;;10.10;94.00;;;;;;5008806;28;20309;-78
2023/11/11 18:26:12;;;;;;;16.60;11.03;;;10.00;93.90;;;;;;5010979;28;20223;-78
2023/11/11 18:28:40;;;;;;;13.73;9.83;;;10.00;93.90;;;;;;5004490;28;20257;-78
2023/11/11 18:31:08;;;;;;;13.73;9.53;;;10.00;94.00;;;;;;5005747;28;20215;-79
2023/11/11 18:33:36;;;;;;;12.30;8.27;;;9.90;94.10;;;;;;5009727;28;20227;-79
2023/11/11 18:36:04;;;;;;;12.43;9.07;;;9.90;94.20;;;;;;5004367;28;20593;-79
2023/11/11 18:38:35;;;;;;;14.50;10.13;;;9.80;94.30;;;;;;5018593;28;20214;-79
2023/11/11 18:41:12;;;;;;;16.10;10.80;;;9.80;94.30;;;;;;5003169;28;20219;-78
2023/11/11 18:43:40;;;;;;;14.43;10.33;;;9.80;94.40;;;;;;5008799;28;20247;-78
2023/11/11 18:46:15;;;;;;;14.77;10.77;;;9.80;94.40;;;;;;5001647;28;20593;-79
2023/11/11 18:48:46;;;;;;;15.13;9.73;;;9.80;94.50;;;;;;4983606;28;20221;-79
2023/11/11 18:51:14;;;;;;;12.77;9.33;;;9.70;94.40;;;;;;5005390;28;20205;-79
2023/11/11 18:53:41;;;;;;;9.27;7.63;;;9.70;94.40;;;;;;4993147;28;20209;-79
2023/11/11 18:56:09;;;;;;;11.80;9.40;;;9.70;94.40;;;;;;5012465;28;20210;-78
2023/11/11 18:58:36;;;;;;;10.23;8.23;;;9.60;94.50;;;;;;5008220;28;20301;-78
2023/11/11 19:01:05;;;;;;;15.53;9.80;;;9.60;94.50;;;;;;4994129;28;20522;-78
2023/11/11 19:03:33;;;;;;;11.63;7.87;;;9.50;94.50;;;;;;5006808;28;20218;-78
2023/11/11 19:06:00;;;;;;;13.50;9.40;;;9.50;94.50;;;;;;4999481;28;20204;-79
2023/11/11 19:08:31;;;;;;;12.30;9.50;;;9.40;94.50;;;;;;5009479;28;20209;-78
2023/11/11 19:10:58;;;;;;;14.17;9.13;;;9.40;94.60;;;;;;5007234;28;20658;-78
2023/11/11 19:13:26;;;;;;;13.53;10.60;;;9.30;94.70;;;;;;4974407;28;20304;-78
2023/11/11 19:15:53;;;;;;;14.83;11.07;;;9.30;94.90;;;;;;4990919;28;20546;-78
2023/11/11 19:18:21;;;;;;;12.50;9.10;;;9.30;95.00;;;;;;4996288;28;20208;-79
2023/11/11 19:20:49;;;;;;;13.13;9.27;;;9.30;95.10;;;;;;5014153;28;20222;-78
2023/11/11 19:23:17;;;;;;;23.57;15.53;;;9.30;95.20;;;;;;5021828;28;20202;-77
2023/11/11 19:25:47;;;;;;;23.60;16.17;;;9.20;95.10;;;;;;5005917;28;20205;-77
2023/11/11 19:28:16;;;;;;;22.30;13.33;;;9.20;95.20;;;;;;4988766;28;20317;-78
2023/11/11 19:30:45;;;;;;;27.63;19.10;;;9.20;95.30;;;;;;5001112;28;20208;-78
2023/11/11 19:33:12;;;;;;;22.47;14.53;;;9.20;95.40;;;;;;5012618;28;20202;-78
2023/11/11 19:35:41;;;;;;;19.40;12.90;;;9.20;95.40;;;;;;5014892;28;20703;-79
2023/11/11 19:38:08;;;;;;;22.53;12.90;;;9.10;95.40;;;;;;4997875;28;20214;-79
2023/11/11 19:40:36;;;;;;;12.80;10.57;;;9.10;95.40;;;;;;5009774;28;20229;-79
2023/11/11 19:43:04;;;;;;;15.67;10.93;;;9.10;95.40;;;;;;5009632;28;20222;-79
2023/11/11 19:45:33;;;;;;;15.43;10.50;;;9.00;95.40;;;;;;5012313;28;20247;-78
2023/11/11 19:48:03;;;;;;;21.33;13.97;;;9.00;95.40;;;;;;5007756;28;20206;-78
2023/11/11 19:50:31;;;;;;;19.83;12.27;;;8.90;95.40;;;;;;5006119;28;20280;-78
2023/11/11 19:52:58;;;;;;;23.17;13.43;;;8.90;95.50;;;;;;4971489;28;20640;-79
2023/11/11 19:55:28;;;;;;;23.83;14.10;;;8.90;95.40;;;;;;5006150;28;20644;-78
2023/11/11 19:57:56;;;;;;;29.27;20.17;;;8.90;95.40;;;;;;5010080;28;20276;-78
2023/11/11 20:00:24;;;;;;;28.30;19.27;;;8.90;95.40;;;;;;5014653;28;20425;-78
2023/11/11 20:02:52;;;;;;;26.37;16.97;;;8.90;95.40;;;;;;4996314;28;20213;-79
2023/11/11 20:05:20;;;;;;;19.37;14.63;;;8.90;95.50;;;;;;5014186;28;20212;-78
2023/11/11 20:07:51;;;;;;;22.73;15.27;;;8.80;95.40;;;;;;5008206;28;20288;-78
2023/11/11 20:10:18;;;;;;;26.27;18.47;;;8.80;95.40;;;;;;5010942;28;20266;-78
2023/11/11 20:12:46;;;;;;;21.63;16.00;;;8.80;95.50;;;;;;5007866;28;20202;-79
2023/11/11 20:15:15;;;;;;;18.57;12.30;;;8.80;95.60;;;;;;5009592;28;20661;-79
2023/11/11 20:17:43;;;;;;;14.70;9.97;;;8.80;95.70;;;;;;4995209;28;20217;-78
2023/11/11 20:20:12;;;;;;;10.67;7.93;;;8.70;95.70;;;;;;5003873;28;20218;-79
2023/11/11 20:22:41;;;;;;;14.17;8.70;;;8.70;95.70;;;;;;4995116;28;20605;-80
2023/11/11 20:25:09;;;;;;;10.13;7.67;;;8.60;95.60;;;;;;5005797;28;20238;-78
2023/11/11 20:27:37;;;;;;;11.83;7.40;;;8.60;95.60;;;;;;4990299;28;20647;-79
2023/11/11 20:30:06;;;;;;;10.50;7.43;;;8.60;95.60;;;;;;5002046;28;20232;-79
2023/11/11 20:32:34;;;;;;;10.23;7.47;;;8.50;95.60;;;;;;4992784;28;20205;-80
2023/11/11 20:35:01;;;;;;;13.70;8.10;;;8.50;95.60;;;;;;5024914;28;20206;-78
2023/11/11 20:37:29;;;;;;;13.23;8.60;;;8.50;95.60;;;;;;5009995;28;20652;-78
2023/11/11 20:39:56;;;;;;;12.80;9.20;;;8.50;95.60;;;;;;5008346;28;20209;-79
2023/11/11 20:42:25;;;;;;;15.83;10.13;;;8.50;95.70;;;;;;5010461;28;20209;-77
2023/11/11 20:44:53;;;;;;;19.33;11.30;;;8.40;95.70;;;;;;5007480;28;20285;-78
2023/11/11 20:47:20;;;;;;;13.17;9.97;;;8.40;95.70;;;;;;5002355;28;20274;-79
2023/11/11 20:49:51;;;;;;;16.23;11.47;;;8.40;95.80;;;;;;4975774;28;20224;-79
2023/11/11 20:52:18;;;;;;;15.30;10.03;;;8.40;95.90;;;;;;4996132;28;20209;-79
2023/11/11 20:54:45;;;;;;;16.10;10.53;;;8.40;95.80;;;;;;5006478;28;20210;-77
2023/11/11 20:57:13;;;;;;;14.33;10.63;;;8.40;95.80;;;;;;5006649;28;20646;-79
2023/11/11 20:59:40;;;;;;;14.73;10.07;;;8.40;95.80;;;;;;4999807;28;20582;-79
2023/11/11 21:02:08;;;;;;;16.47;11.50;;;8.40;95.80;;;;;;5030297;28;20209;-79
2023/11/11 21:04:36;;;;;;;21.07;10.90;;;8.40;95.90;;;;;;5011483;28;20232;-79
2023/11/11 21:07:03;;;;;;;14.53;11.80;;;8.40;96.10;;;;;;5013938;28;20222;-79
2023/11/11 21:09:30;;;;;;;16.87;11.90;;;8.40;96.10;;;;;;5012294;28;20220;-78
2023/11/11 21:11:58;;;;;;;14.17;10.17;;;8.30;96.10;;;;;;4997708;28;20203;-78
2023/11/11 21:14:26;;;;;;;16.60;11.70;;;8.30;96.10;;;;;;5018555;28;20216;-79
2023/11/11 21:16:54;;;;;;;16.30;11.03;;;8.30;96.20;;;;;;5011386;28;20229;-78
2023/11/11 21:19:22;;;;;;;13.40;10.60;;;8.30;96.20;;;;;;5012256;28;20627;-78
2023/11/11 21:21:51;;;;;;;14.23;9.90;;;8.30;96.30;;;;;;5013622;28;20219;-78
2023/11/11 21:24:18;;;;;;;13.40;9.37;;;8.30;96.30;;;;;;5012698;28;20211;-79
2023/11/11 21:26:49;;;;;;;15.57;10.37;;;8.30;96.30;;;;;;5010477;28;20271;-78
2023/11/11 21:29:17;;;;;;;13.17;9.97;;;8.30;96.30;;;;;;4991922;28;20269;-79
2023/11/11 21:31:44;;;;;;;16.67;11.50;;;8.30;96.30;;;;;;5010755;28;20212;-78
2023/11/11 21:34:12;;;;;;;15.00;10.13;;;8.30;96.30;;;;;;5011423;28;20567;-79
2023/11/11 21:36:39;;;;;;;15.17;10.60;;;8.20;96.30;;;;;;5001010;28;20203;-79
2023/11/11 21:39:09;;;;;;;13.47;10.10;;;8.20;96.30;;;;;;5011677;28;20199;-79
2023/11/11 21:41:36;;;;;;;14.03;10.33;;;8.20;96.30;;;;;;5017914;28;20216;-79